Briefing drone pour Echirolles

Rechercher une autre localisation

Conditions de vol :


Nous sommes le : Lundi 19 octobre 2020
Il est 21:32 UTC (23:32 LT)

Lever de soleil : 05:32 UTC (07:32 LT)
Coucher de soleil : 17:11 UTC (19:11 LT)

Météo

L'essentiel des conditions de vol

VIGILANCE MÉTÉO FRANCE - Isère (38)
Vigilance Jaune : Vent violent
METAR de LFLS
LFLS 192100Z AUTO 22013G23KT CAVOK 12/08 Q1019

Date d'émission: 19/10/2020
Heure d'émission: 21:00 UTC
Vent: 220° pour 13 KT (24 km/h) rafales pour 23 KT (43 km/h)
Visibilité horizontale: > 10 km
Plafond : Plafond et visibilité OK (CAVOK)
Température: 12 °C
Point de rosée: 8 °C
Humidité: 77%
Pression (QNH): 1019 hPa
TAF de LFLS
LFLS 191904Z 1919/2015 CNL

Conditions prévues :

Heure d'émission : Bulletin éffectué le 19 à 19:00 UTC
Prévision : Valide du 19 a 19:00 UTC au 20 a 15:00 UTC
Nuages : à 0ft (0 m)
WEBCAM POUR ECHIROLLES

Réglementation

Voler en sécurité

CARTES AERONAUTIQUE 1/500.000
CARTES VAC (LFLS)
SUP AIP




Chargement des AIP...
NOTAM (ECHIROLLES + Terrain à proximité / FIR )




Chargement des NOTAMS...
CONTACT PREFECTURE 38


Avertissement : Les données mises à disposition sont indicatives. Oxygène Drone ne pourra être tenu responsable de dégâts causés aux biens et aux personnes.